Time,TemperatureF,DewpointF,PressureIn,WindDirection,WindDirectionDegrees,WindSpeedMPH,WindSpeedGustMPH,Humidity,HourlyPrecipIn,Conditions,Clouds,dailyrainin,SoftwareType,DateUTC
2013-06-26 00:13:00,75.8,65.0,29.95,NW,317,0.0,3.0,70,0.00,,,0.00,weatherlink.com 1.10,2013-06-26 04:13:00,
2013-06-26 00:28:00,74.8,66.0,29.93,NW,317,0.0,0.0,74,0.00,,,0.00,weatherlink.com 1.10,2013-06-26 04:28:00,
2013-06-26 00:43:00,73.5,66.0,29.90,NW,317,0.0,2.0,78,0.00,,,0.00,weatherlink.com 1.10,2013-06-26 04:43:00,
2013-06-26 00:58:00,72.4,67.0,29.89,NW,317,0.0,0.0,82,0.00,,,0.00,weatherlink.com 1.10,2013-06-26 04:58:00,
2013-06-26 01:13:00,71.9,67.0,29.90,NW,317,0.0,0.0,84,0.00,,,0.00,weatherlink.com 1.10,2013-06-26 05:13:00,
2013-06-26 01:29:00,71.6,67.0,29.90,NW,317,0.0,0.0,86,0.00,,,0.00,weatherlink.com 1.10,2013-06-26 05:29:00,
2013-06-26 01:44:00,71.3,67.0,29.90,NW,317,0.0,0.0,87,0.00,,,0.00,weatherlink.com 1.10,2013-06-26 05:44:00,
2013-06-26 01:59:00,71.0,67.0,29.89,NW,317,0.0,0.0,88,0.00,,,0.00,weatherlink.com 1.10,2013-06-26 05:59:00,
2013-06-26 02:14:00,70.5,67.0,29.89,NW,317,0.0,0.0,89,0.00,,,0.00,weatherlink.com 1.10,2013-06-26 06:14:00,
2013-06-26 02:29:00,70.3,67.0,29.89,NW,317,0.0,0.0,90,0.00,,,0.00,weatherlink.com 1.10,2013-06-26 06:29:00,
2013-06-26 02:44:00,70.2,68.0,29.89,NW,317,0.0,0.0,91,0.00,,,0.00,weatherlink.com 1.10,2013-06-26 06:44:00,
2013-06-26 02:59:00,70.2,68.0,29.89,NW,317,0.0,0.0,92,0.00,,,0.00,weatherlink.com 1.10,2013-06-26 06:59:00,
2013-06-26 03:14:00,70.3,68.0,29.88,NW,317,0.0,0.0,92,0.00,,,0.00,weatherlink.com 1.10,2013-06-26 07:14:00,
2013-06-26 03:29:00,70.9,68.0,29.88,NW,317,0.0,0.0,91,0.00,,,0.00,weatherlink.com 1.10,2013-06-26 07:29:00,
2013-06-26 03:44:00,71.9,69.0,29.88,NW,317,0.0,0.0,90,0.00,,,0.00,weatherlink.com 1.10,2013-06-26 07:44:00,
2013-06-26 03:59:00,72.1,69.0,29.88,NW,317,0.0,0.0,89,0.00,,,0.00,weatherlink.com 1.10,2013-06-26 07:59:00,
2013-06-26 04:14:00,72.1,69.0,29.88,NW,317,0.0,0.0,89,0.00,,,0.00,weatherlink.com 1.10,2013-06-26 08:14:00,
2013-06-26 04:29:00,71.8,69.0,29.87,NW,317,0.0,0.0,90,0.00,,,0.00,weatherlink.com 1.10,2013-06-26 08:29:00,
2013-06-26 04:44:00,71.8,69.0,29.87,NW,317,0.0,0.0,91,0.00,,,0.00,weatherlink.com 1.10,2013-06-26 08:44:00,
2013-06-26 04:59:00,71.7,69.0,29.87,NW,317,0.0,0.0,91,0.00,,,0.00,weatherlink.com 1.10,2013-06-26 08:59:00,
2013-06-26 05:14:00,72.2,70.0,29.88,NW,317,0.0,0.0,91,0.00,,,0.00,weatherlink.com 1.10,2013-06-26 09:14:00,
2013-06-26 05:29:00,72.4,70.0,29.90,NW,317,0.0,2.0,91,0.00,,,0.00,weatherlink.com 1.10,2013-06-26 09:29:00,
2013-06-26 05:44:00,73.2,70.0,29.91,NW,317,0.0,0.0,89,0.00,,,0.00,weatherlink.com 1.10,2013-06-26 09:44:00,
2013-06-26 05:59:00,72.9,69.0,29.91,NW,317,0.0,1.0,88,0.00,,,0.00,weatherlink.com 1.10,2013-06-26 09:59:00,
2013-06-26 06:14:00,72.8,69.0,29.90,NW,317,0.0,0.0,88,0.00,,,0.00,weatherlink.com 1.10,2013-06-26 10:14:00,
2013-06-26 06:29:00,72.3,69.0,29.90,NW,317,0.0,0.0,88,0.00,,,0.00,weatherlink.com 1.10,2013-06-26 10:29:00,
2013-06-26 06:44:00,72.1,69.0,29.91,NW,317,0.0,0.0,89,0.00,,,0.00,weatherlink.com 1.10,2013-06-26 10:44:00,
2013-06-26 06:59:00,72.1,69.0,29.91,NW,317,0.0,0.0,90,0.00,,,0.00,weatherlink.com 1.10,2013-06-26 10:59:00,
2013-06-26 07:14:00,72.3,69.0,29.90,NW,317,0.0,0.0,90,0.00,,,0.00,weatherlink.com 1.10,2013-06-26 11:14:00,
2013-06-26 07:29:00,72.7,70.0,29.90,NW,317,0.0,0.0,90,0.00,,,0.00,weatherlink.com 1.10,2013-06-26 11:29:00,
2013-06-26 07:44:00,73.3,70.0,29.90,NW,317,0.0,0.0,88,0.00,,,0.00,weatherlink.com 1.10,2013-06-26 11:44:00,
2013-06-26 07:59:00,74.3,70.0,29.91,WNW,295,0.0,2.0,87,0.00,,,0.00,weatherlink.com 1.10,2013-06-26 11:59:00,
2013-06-26 08:14:00,75.1,70.0,29.90,North,349,0.0,1.0,83,0.00,,,0.00,weatherlink.com 1.10,2013-06-26 12:14:00,
2013-06-26 08:29:00,76.1,70.0,29.91,North,349,0.0,1.0,82,0.00,,,0.00,weatherlink.com 1.10,2013-06-26 12:29:00,
2013-06-26 08:44:00,76.9,71.0,29.90,North,349,1.0,1.0,81,0.00,,,0.00,weatherlink.com 1.10,2013-06-26 12:44:00,
2013-06-26 08:59:00,77.7,71.0,29.90,SSW,194,0.0,2.0,79,0.00,,,0.00,weatherlink.com 1.10,2013-06-26 12:59:00,
2013-06-26 09:14:00,78.3,71.0,29.90,SE,126,0.0,2.0,79,0.00,,,0.00,weatherlink.com 1.10,2013-06-26 13:14:00,
2013-06-26 09:29:00,78.7,72.0,29.90,SSE,167,0.0,5.0,80,0.00,,,0.00,weatherlink.com 1.10,2013-06-26 13:29:00,
2013-06-26 09:44:00,79.0,72.0,29.90,SE,134,0.0,3.0,80,0.00,,,0.00,weatherlink.com 1.10,2013-06-26 13:44:00,
2013-06-26 09:59:00,79.4,73.0,29.89,SSW,199,0.0,3.0,80,0.00,,,0.00,weatherlink.com 1.10,2013-06-26 13:59:00,
2013-06-26 10:14:00,80.0,73.0,29.89,South,191,0.0,3.0,80,0.00,,,0.00,weatherlink.com 1.10,2013-06-26 14:14:00,
2013-06-26 10:29:00,80.8,73.0,29.88,South,178,0.0,3.0,78,0.00,,,0.00,weatherlink.com 1.10,2013-06-26 14:29:00,
2013-06-26 10:44:00,81.8,74.0,29.89,SSW,200,1.0,3.0,77,0.00,,,0.00,weatherlink.com 1.10,2013-06-26 14:44:00,
2013-06-26 10:59:00,82.7,73.0,29.89,South,174,0.0,3.0,72,0.00,,,0.00,weatherlink.com 1.10,2013-06-26 14:59:00,
2013-06-26 11:14:00,83.6,74.0,29.88,SSW,202,0.0,3.0,73,0.00,,,0.00,weatherlink.com 1.10,2013-06-26 15:14:00,
2013-06-26 11:29:00,83.8,75.0,29.89,South,173,0.0,5.0,74,0.00,,,0.00,weatherlink.com 1.10,2013-06-26 15:29:00,
2013-06-26 11:44:00,84.3,74.0,29.89,West,265,2.0,4.0,72,0.00,,,0.00,weatherlink.com 1.10,2013-06-26 15:44:00,
2013-06-26 11:59:00,84.3,74.0,29.89,South,186,1.0,4.0,71,0.00,,,0.00,weatherlink.com 1.10,2013-06-26 15:59:00,
2013-06-26 12:14:00,84.7,73.0,29.89,South,178,0.0,3.0,69,0.00,,,0.00,weatherlink.com 1.10,2013-06-26 16:14:00,
2013-06-26 12:29:00,84.7,73.0,29.89,SSE,155,1.0,3.0,69,0.00,,,0.00,weatherlink.com 1.10,2013-06-26 16:29:00,
2013-06-26 12:45:00,85.6,73.0,29.89,SSE,161,0.0,2.0,65,0.00,,,0.00,weatherlink.com 1.10,2013-06-26 16:45:00,
2013-06-26 13:00:00,86.1,72.0,29.88,South,172,1.0,2.0,63,0.00,,,0.00,weatherlink.com 1.10,2013-06-26 17:00:00,
2013-06-26 13:15:00,86.7,72.0,29.88,SE,137,0.0,3.0,62,0.00,,,0.00,weatherlink.com 1.10,2013-06-26 17:15:00,
2013-06-26 13:30:00,87.1,71.0,29.87,ENE,65,0.0,3.0,60,0.00,,,0.00,weatherlink.com 1.10,2013-06-26 17:30:00,
2013-06-26 13:45:00,88.0,73.0,29.87,SSW,208,1.0,2.0,62,0.00,,,0.00,weatherlink.com 1.10,2013-06-26 17:45:00,
2013-06-26 14:00:00,87.7,74.0,29.87,South,184,3.0,3.0,64,0.00,,,0.00,weatherlink.com 1.10,2013-06-26 18:00:00,
2013-06-26 14:15:00,87.6,74.0,29.86,SSW,205,1.0,3.0,65,0.00,,,0.00,weatherlink.com 1.10,2013-06-26 18:15:00,
2013-06-26 14:30:00,87.9,75.0,29.85,South,177,0.0,2.0,65,0.00,,,0.00,weatherlink.com 1.10,2013-06-26 18:30:00,
2013-06-26 14:45:00,87.7,75.0,29.86,South,182,2.0,4.0,65,0.00,,,0.00,weatherlink.com 1.10,2013-06-26 18:45:00,
2013-06-26 15:00:00,88.3,72.0,29.85,SW,215,0.0,3.0,59,0.00,,,0.00,weatherlink.com 1.10,2013-06-26 19:00:00,
2013-06-26 15:15:00,88.2,73.0,29.85,SSW,206,0.0,3.0,61,0.00,,,0.00,weatherlink.com 1.10,2013-06-26 19:15:00,
2013-06-26 15:30:00,88.2,75.0,29.84,East,84,2.0,5.0,65,0.00,,,0.00,weatherlink.com 1.10,2013-06-26 19:30:00,
2013-06-26 15:45:00,88.4,76.0,29.84,ESE,114,1.0,4.0,66,0.00,,,0.00,weatherlink.com 1.10,2013-06-26 19:45:00,
2013-06-26 16:00:00,88.0,76.0,29.83,SSE,163,0.0,3.0,67,0.00,,,0.00,weatherlink.com 1.10,2013-06-26 20:00:00,
2013-06-26 16:15:00,87.9,77.0,29.82,South,180,0.0,4.0,69,0.00,,,0.00,weatherlink.com 1.10,2013-06-26 20:15:00,
2013-06-26 16:30:00,87.7,77.0,29.82,SW,229,0.0,4.0,70,0.00,,,0.00,weatherlink.com 1.10,2013-06-26 20:30:00,
2013-06-26 16:45:00,87.1,76.0,29.81,South,180,1.0,4.0,70,0.00,,,0.00,weatherlink.com 1.10,2013-06-26 20:45:00,
2013-06-26 17:01:00,87.0,76.0,29.80,South,178,0.0,4.0,70,0.00,,,0.00,weatherlink.com 1.10,2013-06-26 21:01:00,
2013-06-26 17:15:00,86.7,76.0,29.80,South,177,0.0,2.0,70,0.00,,,0.00,weatherlink.com 1.10,2013-06-26 21:15:00,
2013-06-26 17:30:00,85.7,76.0,29.79,South,177,0.0,1.0,72,0.00,,,0.00,weatherlink.com 1.10,2013-06-26 21:30:00,
2013-06-26 17:45:00,85.5,76.0,29.79,South,175,1.0,2.0,73,0.00,,,0.00,weatherlink.com 1.10,2013-06-26 21:45:00,
2013-06-26 18:00:00,85.3,76.0,29.80,South,178,0.0,3.0,74,0.00,,,0.00,weatherlink.com 1.10,2013-06-26 22:00:00,
2013-06-26 18:15:00,85.0,76.0,29.79,South,169,0.0,2.0,75,0.00,,,0.00,weatherlink.com 1.10,2013-06-26 22:15:00,
2013-06-26 18:30:00,84.6,77.0,29.80,South,169,0.0,3.0,77,0.00,,,0.00,weatherlink.com 1.10,2013-06-26 22:30:00,
2013-06-26 18:45:00,84.0,77.0,29.80,SSE,165,0.0,3.0,78,0.00,,,0.00,weatherlink.com 1.10,2013-06-26 22:45:00,
2013-06-26 19:00:00,83.4,76.0,29.81,South,173,0.0,2.0,79,0.00,,,0.00,weatherlink.com 1.10,2013-06-26 23:00:00,
2013-06-26 19:15:00,83.0,76.0,29.81,South,173,0.0,2.0,79,0.00,,,0.00,weatherlink.com 1.10,2013-06-26 23:15:00,
2013-06-26 19:30:00,82.7,76.0,29.82,SE,139,0.0,1.0,80,0.00,,,0.00,weatherlink.com 1.10,2013-06-26 23:30:00,
2013-06-26 19:45:00,82.1,76.0,29.82,NNE,23,0.0,2.0,82,0.00,,,0.00,weatherlink.com 1.10,2013-06-26 23:45:00,
2013-06-26 20:00:00,81.2,74.0,29.82,NNE,23,0.0,0.0,78,0.00,,,0.00,weatherlink.com 1.10,2013-06-27 00:00:00,
2013-06-26 20:15:00,80.5,73.0,29.82,ESE,105,0.0,2.0,77,0.00,,,0.00,weatherlink.com 1.10,2013-06-27 00:15:00,
2013-06-26 20:30:00,79.8,71.0,29.82,North,355,0.0,3.0,75,0.00,,,0.00,weatherlink.com 1.10,2013-06-27 00:30:00,
2013-06-26 20:45:00,79.2,71.0,29.82,North,355,0.0,0.0,76,0.00,,,0.00,weatherlink.com 1.10,2013-06-27 00:45:00,
2013-06-26 21:00:00,78.3,71.0,29.82,North,355,0.0,0.0,78,0.00,,,0.00,weatherlink.com 1.10,2013-06-27 01:00:00,
2013-06-26 21:15:00,77.6,71.0,29.82,North,355,0.0,0.0,80,0.00,,,0.00,weatherlink.com 1.10,2013-06-27 01:15:00,
2013-06-26 21:30:00,77.4,71.0,29.83,North,355,0.0,0.0,81,0.00,,,0.00,weatherlink.com 1.10,2013-06-27 01:30:00,
2013-06-26 21:45:00,77.1,71.0,29.82,North,355,0.0,0.0,82,0.00,,,0.00,weatherlink.com 1.10,2013-06-27 01:45:00,
2013-06-26 22:00:00,76.4,71.0,29.82,North,355,0.0,0.0,84,0.00,,,0.00,weatherlink.com 1.10,2013-06-27 02:00:00,
2013-06-26 22:15:00,76.3,72.0,29.84,North,355,0.0,0.0,86,0.00,,,0.00,weatherlink.com 1.10,2013-06-27 02:15:00,
2013-06-26 22:30:00,76.1,72.0,29.84,North,355,0.0,0.0,87,0.00,,,0.00,weatherlink.com 1.10,2013-06-27 02:30:00,
2013-06-26 22:45:00,76.0,72.0,29.83,SE,142,0.0,1.0,87,0.00,,,0.00,weatherlink.com 1.10,2013-06-27 02:45:00,
2013-06-26 23:00:00,76.2,72.0,29.83,SE,142,0.0,0.0,87,0.00,,,0.00,weatherlink.com 1.10,2013-06-27 03:00:00,
2013-06-26 23:15:00,76.4,71.0,29.82,SE,140,0.0,0.0,84,0.00,,,0.00,weatherlink.com 1.10,2013-06-27 03:15:00,
2013-06-26 23:30:00,76.3,71.0,29.83,ENE,62,0.0,1.0,84,0.00,,,0.00,weatherlink.com 1.10,2013-06-27 03:30:00,
2013-06-26 23:45:00,76.0,71.0,29.82,ESE,106,0.0,1.0,84,0.00,,,0.00,weatherlink.com 1.10,2013-06-27 03:45:00,